createdAt,value
2023-04-10T00:00:22.143Z,66.93
2023-04-10T00:05:24.885Z,70.37
2023-04-10T00:10:29.499Z,70.16
2023-04-10T00:15:31.840Z,66.38
2023-04-10T00:20:34.117Z,66.90
2023-04-10T00:25:36.535Z,67.31
2023-04-10T00:30:38.898Z,68.06
2023-04-10T00:35:41.302Z,64.89
2023-04-10T00:40:43.464Z,67.84
2023-04-10T00:45:46.863Z,66.10
2023-04-10T00:50:50.493Z,71.06
2023-04-10T00:55:53.981Z,67.22
2023-04-10T01:00:56.922Z,69.71
2023-04-10T01:06:42.417Z,71.72
2023-04-10T01:11:59.668Z,72.29
2023-04-10T01:17:08.569Z,69.02
2023-04-10T01:22:14.560Z,67.33
2023-04-10T01:27:22.731Z,72.27
2023-04-10T01:32:28.411Z,68.17
2023-04-10T01:37:37.882Z,72.38
2023-04-10T01:42:45.773Z,69.57
2023-04-10T01:47:49.034Z,68.37
2023-04-10T01:52:52.985Z,67.47
2023-04-10T01:58:01.915Z,71.76
2023-04-10T02:03:04.866Z,71.78
2023-04-10T02:08:17.422Z,72.67
2023-04-10T02:13:23.934Z,72.25
2023-04-10T02:18:27.794Z,69.49
2023-04-10T02:23:30.562Z,69.82
2023-04-10T02:28:32.927Z,69.28
2023-04-10T02:33:35.363Z,68.79
2023-04-10T02:38:37.686Z,68.27
2023-04-10T02:43:40.615Z,72.05
2023-04-10T02:48:43.789Z,74.51
2023-04-10T02:53:49.095Z,75.67
2023-04-10T02:59:01.654Z,74.36
2023-04-10T03:04:05.406Z,70.85
2023-04-10T03:09:13.064Z,73.63
2023-04-10T03:14:15.710Z,72.31
2023-04-10T03:19:17.905Z,68.13
2023-04-10T03:24:20.789Z,70.10
2023-04-10T03:29:23.649Z,71.67
2023-04-10T03:34:26.227Z,70.94
2023-04-10T03:39:29.262Z,68.07
2023-04-10T03:44:31.622Z,67.76
2023-04-10T03:49:33.996Z,68.11
2023-04-10T03:54:41.061Z,71.79
2023-04-10T03:59:51.742Z,71.16
2023-04-10T04:04:54.867Z,72.08
2023-04-10T04:10:16.180Z,72.32
2023-04-10T04:15:36.742Z,70.07
2023-04-10T04:21:12.288Z,69.89
2023-04-10T04:26:34.884Z,71.08
2023-04-10T04:31:47.607Z,72.99
2023-04-10T04:37:10.762Z,70.92
2023-04-10T04:42:21.386Z,74.03
2023-04-10T04:47:26.485Z,73.78
2023-04-10T04:52:52.258Z,69.54
2023-04-10T04:58:01.496Z,73.98
2023-04-10T05:03:07.222Z,72.97
2023-04-10T05:08:32.624Z,72.93
2023-04-10T05:13:46.161Z,73.51
2023-04-10T05:19:08.296Z,72.88
2023-04-10T05:24:29.357Z,74.19
2023-04-10T05:30:00.997Z,73.21
2023-04-10T05:35:12.052Z,71.34
2023-04-10T05:40:31.992Z,71.85
2023-04-10T05:46:03.558Z,68.63
2023-04-10T05:51:24.438Z,64.36
2023-04-10T05:56:43.382Z,60.11
2023-04-10T06:02:24.924Z,51.15
2023-04-10T06:07:27.833Z,48.95
2023-04-10T06:12:30.279Z,47.31
2023-04-10T06:17:32.714Z,56.14
2023-04-10T06:22:35.208Z,57.52
2023-04-10T06:27:37.867Z,56.20
2023-04-10T06:32:43.573Z,55.80
2023-04-10T06:37:46.559Z,58.18
2023-04-10T06:42:50.576Z,58.88
2023-04-10T06:48:14.516Z,60.36
2023-04-10T06:53:17.028Z,58.74
2023-04-10T06:58:21.168Z,60.37
2023-04-10T07:03:23.416Z,61.61
2023-04-10T07:08:25.917Z,57.15
2023-04-10T07:13:28.298Z,59.31
2023-04-10T07:18:30.659Z,58.43
2023-04-10T07:23:33.032Z,57.59
2023-04-10T07:28:35.491Z,58.31
2023-04-10T07:33:39.025Z,55.65
2023-04-10T07:38:42.216Z,55.64
2023-04-10T07:43:44.546Z,55.22
2023-04-10T07:48:47.827Z,54.31
2023-04-10T07:53:50.333Z,56.70
2023-04-10T07:58:53.119Z,56.28
2023-04-10T08:03:59.076Z,55.48
2023-04-10T08:09:02.113Z,55.91
2023-04-10T08:14:06.949Z,54.28
2023-04-10T08:19:09.511Z,55.29
2023-04-10T08:24:11.853Z,56.92
2023-04-10T08:29:14.038Z,54.14
2023-04-10T08:34:16.213Z,55.06
2023-04-10T08:39:18.898Z,56.23
2023-04-10T08:44:21.548Z,55.31
2023-04-10T08:49:55.707Z,54.65
2023-04-10T08:55:00.049Z,54.08
2023-04-10T09:00:12.781Z,54.42
2023-04-10T09:05:28.707Z,52.67
2023-04-10T09:10:31.625Z,54.03
2023-04-10T09:15:59.505Z,53.55
2023-04-10T09:21:12.157Z,52.66
2023-04-10T09:26:27.312Z,50.53
2023-04-10T09:31:35.971Z,50.84
2023-04-10T09:36:38.708Z,52.58
2023-04-10T09:41:57.698Z,50.02
2023-04-10T09:47:19.373Z,49.83
2023-04-10T09:52:27.249Z,50.97
2023-04-10T09:57:32.399Z,50.96
2023-04-10T10:02:41.385Z,48.27
2023-04-10T10:07:45.187Z,50.87
2023-04-10T10:13:01.066Z,48.94
2023-04-10T10:18:21.497Z,48.90
2023-04-10T10:23:26.001Z,49.26
2023-04-10T10:28:31.617Z,47.05
2023-04-10T10:33:37.189Z,48.42
2023-04-10T10:38:48.343Z,47.82
2023-04-10T10:44:16.967Z,46.86
2023-04-10T10:49:19.319Z,46.97
2023-04-10T10:54:33.716Z,48.14
2023-04-10T10:59:48.083Z,48.55
2023-04-10T11:04:50.680Z,48.38
2023-04-10T11:09:54.777Z,48.05
2023-04-10T11:15:03.220Z,48.31
2023-04-10T11:20:07.893Z,50.22
2023-04-10T11:25:10.626Z,48.33
2023-04-10T11:30:36.248Z,46.12
2023-04-10T11:35:39.462Z,47.73
2023-04-10T11:41:00.007Z,45.50
2023-04-10T11:46:05.027Z,47.14
2023-04-10T11:51:12.370Z,49.14
2023-04-10T11:56:22.213Z,47.57
2023-04-10T12:01:24.587Z,45.95
2023-04-10T12:06:27.679Z,48.19
2023-04-10T12:11:29.924Z,46.26
2023-04-10T12:16:33.356Z,43.74
2023-04-10T12:21:40.277Z,46.76
2023-04-10T12:26:49.775Z,48.06
2023-04-10T12:31:52.129Z,43.28
2023-04-10T12:36:54.548Z,47.75
2023-04-10T12:42:21.224Z,42.56
2023-04-10T12:47:25.698Z,45.12
2023-04-10T12:52:28.084Z,43.13
2023-04-10T12:57:30.234Z,42.85
2023-04-10T13:02:32.746Z,43.61
2023-04-10T13:07:36.541Z,45.78
2023-04-10T13:12:40.063Z,43.81
2023-04-10T13:17:42.458Z,42.17
2023-04-10T13:22:45.440Z,43.95
2023-04-10T13:27:47.565Z,46.18
2023-04-10T13:32:49.721Z,45.68
2023-04-10T13:37:54.189Z,42.79
2023-04-10T13:43:09.198Z,47.58
2023-04-10T13:48:12.109Z,47.06
2023-04-10T13:53:14.478Z,43.61
2023-04-10T13:58:16.768Z,47.83
2023-04-10T14:03:19.013Z,48.20
2023-04-10T14:08:21.376Z,48.15
2023-04-10T14:13:23.505Z,44.81
2023-04-10T14:18:25.649Z,47.82
2023-04-10T14:23:27.967Z,49.56
2023-04-10T14:28:30.200Z,48.88
2023-04-10T14:33:32.474Z,48.09
2023-04-10T14:38:36.703Z,48.54
2023-04-10T14:43:38.998Z,48.46
2023-04-10T14:48:41.435Z,48.63
2023-04-10T14:53:45.738Z,46.91
2023-04-10T14:58:47.892Z,48.39
2023-04-10T15:03:50.212Z,45.93
2023-04-10T15:08:52.513Z,46.17
2023-04-10T15:13:54.966Z,46.51
2023-04-10T15:18:57.519Z,46.48
2023-04-10T15:24:01.170Z,47.00
2023-04-10T15:29:03.479Z,46.96
2023-04-10T15:34:05.943Z,46.92
2023-04-10T15:44:28.498Z,47.56
2023-04-10T15:49:37.748Z,47.37
2023-04-10T15:54:40.748Z,48.15
2023-04-10T15:59:42.944Z,48.49
2023-04-10T16:04:45.500Z,47.46
2023-04-10T16:09:47.754Z,49.41
2023-04-10T16:14:50.273Z,51.60
2023-04-10T16:19:52.775Z,49.47
2023-04-10T16:24:58.081Z,50.93
2023-04-10T16:30:00.240Z,51.66
2023-04-10T16:35:02.368Z,52.13
2023-04-10T16:40:06.243Z,50.67
2023-04-10T16:45:09.612Z,51.12
2023-04-10T16:50:12.297Z,51.79
2023-04-10T16:55:14.547Z,50.40
2023-04-10T17:00:17.376Z,49.43
2023-04-10T17:05:19.805Z,48.94
2023-04-10T17:10:22.205Z,49.63
2023-04-10T17:15:24.804Z,49.66
2023-04-10T17:20:28.293Z,50.28
2023-04-10T17:25:30.979Z,49.33
2023-04-10T17:30:33.889Z,49.17
2023-04-10T17:35:36.245Z,48.92
2023-04-10T17:40:40.980Z,49.07
2023-04-10T17:45:43.199Z,49.76
2023-04-10T17:50:45.352Z,49.53
2023-04-10T17:55:47.712Z,49.46
2023-04-10T18:00:49.963Z,48.51
2023-04-10T18:05:52.344Z,48.38
2023-04-10T18:10:54.480Z,49.19
2023-04-10T18:15:56.661Z,47.77
2023-04-10T18:21:01.857Z,49.91
2023-04-10T18:26:04.324Z,48.94
2023-04-10T18:31:08.410Z,48.38
2023-04-10T18:36:11.129Z,47.63
2023-04-10T18:41:13.888Z,47.31
2023-04-10T18:46:16.413Z,46.56
2023-04-10T18:51:20.436Z,46.50
2023-04-10T18:56:22.822Z,47.05
2023-04-10T19:01:25.016Z,47.70
2023-04-10T19:06:45.969Z,48.75
2023-04-10T19:11:48.063Z,48.29
2023-04-10T19:16:50.362Z,49.73
2023-04-10T19:21:52.716Z,48.90
2023-04-10T19:26:56.411Z,48.67
2023-04-10T19:31:58.752Z,48.50
2023-04-10T19:37:00.912Z,48.35
2023-04-10T19:42:03.461Z,48.56
2023-04-10T19:47:05.886Z,48.78
2023-04-10T19:52:08.493Z,48.65
2023-04-10T19:57:11.206Z,48.76
2023-04-10T20:02:15.716Z,49.50
2023-04-10T20:07:17.964Z,49.41
2023-04-10T20:12:20.427Z,50.70
2023-04-10T20:17:22.684Z,52.29
2023-04-10T20:22:25.509Z,53.38
2023-04-10T20:27:27.852Z,55.05
2023-04-10T20:32:30.223Z,56.32
2023-04-10T20:37:32.465Z,56.27
2023-04-10T20:42:34.778Z,55.38
2023-04-10T20:47:37.188Z,55.78
2023-04-10T20:52:41.113Z,54.01
2023-04-10T20:57:43.269Z,54.14
2023-04-10T21:02:45.577Z,54.33
2023-04-10T21:07:47.986Z,51.88
2023-04-10T21:12:50.168Z,51.16
2023-04-10T21:17:52.420Z,52.77
2023-04-10T21:22:54.763Z,51.84
2023-04-10T21:27:57.110Z,51.95
2023-04-10T21:32:59.292Z,52.28
2023-04-10T21:38:02.420Z,50.32
2023-04-10T21:43:05.621Z,49.80
2023-04-10T21:48:07.907Z,49.16
2023-04-10T21:53:10.129Z,50.11
2023-04-10T21:58:12.325Z,51.89
2023-04-10T22:03:20.207Z,51.10
2023-04-10T22:08:22.944Z,51.13
2023-04-10T22:13:30.754Z,51.13
2023-04-10T22:18:33.826Z,51.30
2023-04-10T22:23:35.999Z,50.15
2023-04-10T22:28:38.109Z,49.71
2023-04-10T22:33:40.708Z,48.97
2023-04-10T22:38:43.087Z,48.95
2023-04-10T22:43:45.308Z,48.55
2023-04-10T22:48:47.631Z,49.38
2023-04-10T22:53:49.813Z,49.18
2023-04-10T22:58:52.486Z,49.44
2023-04-10T23:03:55.004Z,49.31
2023-04-10T23:08:57.306Z,49.03
2023-04-10T23:13:59.566Z,49.68
2023-04-10T23:19:01.754Z,48.63
2023-04-10T23:24:04.060Z,49.95
2023-04-10T23:29:06.227Z,50.32
2023-04-10T23:34:08.373Z,51.23
2023-04-10T23:39:10.861Z,51.96
2023-04-10T23:44:13.163Z,52.40
2023-04-10T23:49:15.346Z,52.43
2023-04-10T23:54:17.464Z,52.49
2023-04-10T23:59:20.172Z,52.06
